Weather History for Glendive, MT

Change the Weather History Date:

Wednesday, October 10, 2012

  Actual Average Record
Temperature  
Mean Temperature 50 °F -  
Max Temperature 68 °F 58 °F 78 °F (2000)
Min Temperature 33 °F 34 °F 28 °F (2000)
Degree Days  
Heating Degree Days 14    
Moisture  
Dew Point 31 °F    
Average Humidity 58    
Maximum Humidity 87    
Minimum Humidity 28    
Precipitation  
Precipitation 0.00 in - - ()
Sea Level Pressure  
Sea Level Pressure 29.90 in    
Wind  
Wind Speed 10 mph (WSW)    
Max Wind Speed 22 mph    
Max Gust Speed 28 mph    
Visibility 10 miles    
Events      
Averages and records for this station are not official NWS values.
T = Trace of Precipitation, MM = Missing Value Source: NWS Daily Summary

Daily Weather History Graph

Daily Weather History Graph

Search for Another Location

Airport:

Trip Planner

Search our weather history database for the weather conditions in past years. The results will help you decide how hot, cold, wet, or windy it might be!

Date:

Astronomy

Oct. 10, 2012 Rise Set
Actual Time 7:11 AM MDT 6:20 PM MDT
Civil Twilight 6:40 AM MDT 6:50 PM MDT
Nautical Twilight 6:05 AM MDT 7:25 PM MDT
Astronomical Twilight 5:29 AM MDT 8:01 PM MDT
Moon 1:30 AM MDT (10/10) 3:41 PM MDT (10/10)
Length of Visible Light 12h 10m
Length of Day
11h 08m
Waning Crescent, 26% of the Moon is Illuminated
Oct 10
Waning Crescent
Oct 15
New
Oct 21
First Quarter
Oct 29
Full
Nov 6
Last Quarter

Hourly Weather History & Observations

Time (MDT) Temp. Windchill Dew Point Humidity Pressure Visibility Wind Dir Wind Speed Gust Speed Precip Events Conditions
12:15 AM 37.4 °F 34.9 °F 26.6 °F 65% 30.03 in 10.0 mi WSW 3.5 mph - N/A   Overcast
12:55 AM 37.4 °F 32.8 °F 26.6 °F 65% 30.02 in 10.0 mi South 5.8 mph - N/A   Overcast
1:15 AM 37.4 °F 32.8 °F 26.6 °F 65% 30.01 in 10.0 mi SSE 5.8 mph - N/A   Overcast
1:35 AM 37.4 °F 32.8 °F 26.6 °F 65% 30.01 in 10.0 mi South 5.8 mph - N/A   Overcast
2:15 AM 37.4 °F 32.1 °F 26.6 °F 65% 29.99 in 10.0 mi South 6.9 mph - N/A   Overcast
2:35 AM 37.4 °F 32.8 °F 26.6 °F 65% 29.99 in 10.0 mi SSE 5.8 mph - N/A   Overcast
2:55 AM 37.4 °F 33.8 °F 28.4 °F 70% 29.98 in 10.0 mi South 4.6 mph - N/A   Overcast
3:15 AM 37.4 °F 30.8 °F 30.2 °F 75% 29.97 in 10.0 mi South 9.2 mph - N/A   Overcast
3:35 AM 37.4 °F 31.4 °F 30.2 °F 75% 29.96 in 10.0 mi South 8.1 mph - N/A   Mostly Cloudy
3:55 AM 35.6 °F 29.9 °F 28.4 °F 75% 29.95 in 10.0 mi South 6.9 mph - N/A   Clear
4:15 AM 35.6 °F 29.2 °F 28.4 °F 75% 29.95 in 10.0 mi South 8.1 mph - N/A   Clear
4:35 AM 35.6 °F 29.2 °F 30.2 °F 81% 29.94 in 10.0 mi South 8.1 mph - N/A   Clear
4:55 AM 35.6 °F 31.7 °F 28.4 °F 75% 29.93 in 10.0 mi South 4.6 mph - N/A   Clear
5:15 AM 33.8 °F 27.0 °F 28.4 °F 81% 29.93 in 10.0 mi South 8.1 mph - N/A   Clear
5:35 AM 33.8 °F 25.3 °F 28.4 °F 81% 29.92 in 10.0 mi South 11.5 mph - N/A   Clear
5:55 AM 33.8 °F 25.8 °F 28.4 °F 81% 29.91 in 10.0 mi South 10.4 mph - N/A   Clear
6:15 AM 33.8 °F 25.8 °F 28.4 °F 81% 29.90 in 10.0 mi SSW 10.4 mph - N/A   Clear
6:35 AM 33.8 °F 26.4 °F 28.4 °F 81% 29.90 in 10.0 mi SSW 9.2 mph - N/A   Clear
6:55 AM 33.8 °F 26.4 °F 28.4 °F 81% 29.90 in 10.0 mi SSW 9.2 mph - N/A   Clear
7:15 AM 33.8 °F 27.7 °F 28.4 °F 81% 29.89 in 10.0 mi South 6.9 mph - N/A   Clear
7:35 AM 33.8 °F 26.4 °F 30.2 °F 87% 29.88 in 10.0 mi South 9.2 mph - N/A   Clear
7:55 AM 35.6 °F 28.6 °F 30.2 °F 81% 29.88 in 10.0 mi SSW 9.2 mph - N/A   Clear
8:15 AM 37.4 °F 31.4 °F 32.0 °F 81% 29.88 in 10.0 mi SSE 8.1 mph - N/A   Clear
8:55 AM 41.0 °F 35.8 °F 33.8 °F 76% 29.87 in 10.0 mi South 8.1 mph - N/A   Clear
9:15 AM 44.6 °F 37.8 °F 33.8 °F 66% 29.86 in 10.0 mi SW 15.0 mph 21.9 mph N/A   Clear
9:35 AM 46.4 °F 41.1 °F 35.6 °F 66% 29.86 in 10.0 mi South 11.5 mph - N/A   Clear
9:55 AM 51.8 °F - 33.8 °F 50% 29.85 in 10.0 mi SW 13.8 mph 20.7 mph N/A   Clear
10:15 AM 53.6 °F - 32.0 °F 44% 29.86 in 10.0 mi SW 13.8 mph 20.7 mph N/A   Clear
10:55 AM 55.4 °F - 33.8 °F 44% 29.85 in 10.0 mi WSW 17.3 mph 20.7 mph N/A   Clear
11:15 AM 57.2 °F - 33.8 °F 41% 29.84 in 10.0 mi WSW 17.3 mph 21.9 mph N/A   Clear
11:35 AM 59.0 °F - 35.6 °F 42% 29.83 in 10.0 mi SW 15.0 mph 20.7 mph N/A   Clear
11:55 AM 62.6 °F - 35.6 °F 37% 29.82 in 10.0 mi WSW 17.3 mph 21.9 mph N/A   Clear
12:15 PM 62.6 °F - 33.8 °F 34% 29.82 in 10.0 mi West 12.7 mph 20.7 mph N/A   Scattered Clouds
12:35 PM 64.4 °F - 33.8 °F 32% 29.82 in 10.0 mi WNW 16.1 mph 21.9 mph N/A   Mostly Cloudy
12:55 PM 66.2 °F - 33.8 °F 30% 29.81 in 10.0 mi WNW 15.0 mph 18.4 mph N/A   Scattered Clouds
1:16 PM 66.2 °F - 32.0 °F 28% 29.80 in 10.0 mi WNW 16.1 mph 23.0 mph N/A   Clear
1:35 PM 66.2 °F - 33.8 °F 30% 29.80 in 10.0 mi WNW 18.4 mph 24.2 mph N/A   Clear
1:55 PM 66.2 °F - 33.8 °F 30% 29.80 in 10.0 mi WNW 19.6 mph 27.6 mph N/A   Clear
2:15 PM 66.2 °F - 33.8 °F 30% 29.80 in 10.0 mi WNW 16.1 mph 24.2 mph N/A   Clear
2:35 PM 68.0 °F - 33.8 °F 28% 29.80 in 10.0 mi NW 21.9 mph 27.6 mph N/A   Clear
2:55 PM 64.4 °F - 33.8 °F 32% 29.81 in 10.0 mi NNW 19.6 mph 25.3 mph N/A   Clear
3:15 PM 62.6 °F - 33.8 °F 34% 29.82 in 10.0 mi NNW 20.7 mph 24.2 mph N/A   Clear
3:35 PM 60.8 °F - 33.8 °F 36% 29.82 in 10.0 mi NNW 19.6 mph 25.3 mph N/A   Clear
3:55 PM 59.0 °F - 33.8 °F 39% 29.83 in 10.0 mi NW 19.6 mph 26.5 mph N/A   Clear
4:15 PM 57.2 °F - 33.8 °F 41% 29.84 in 10.0 mi NNW 20.7 mph - N/A   Clear
4:35 PM 57.2 °F - 33.8 °F 41% 29.85 in 10.0 mi NNW 18.4 mph 25.3 mph N/A   Clear
4:55 PM 55.4 °F - 33.8 °F 44% 29.86 in 10.0 mi North 20.7 mph - N/A   Clear
5:15 PM 53.6 °F - 33.8 °F 47% 29.87 in 10.0 mi North 19.6 mph - N/A   Clear
5:35 PM 53.6 °F - 33.8 °F 47% 29.89 in 10.0 mi North 12.7 mph - N/A   Clear
5:55 PM 51.8 °F - 33.8 °F 50% 29.90 in 10.0 mi North 13.8 mph - N/A   Clear
6:15 PM 51.8 °F - 33.8 °F 50% 29.91 in 10.0 mi North 12.7 mph 21.9 mph N/A   Clear
6:35 PM 50.0 °F - 33.8 °F 54% 29.92 in 10.0 mi North 15.0 mph - N/A   Clear
6:55 PM 48.2 °F - 33.8 °F 58% 29.95 in 10.0 mi NNE 15.0 mph - N/A   Clear
7:15 PM 46.4 °F 40.7 °F 32.0 °F 57% 29.96 in 10.0 mi North 12.7 mph - N/A   Clear
7:35 PM 44.6 °F 37.2 °F 32.0 °F 61% 29.97 in 10.0 mi North 17.3 mph 20.7 mph N/A   Mostly Cloudy
7:55 PM 44.6 °F 37.2 °F 30.2 °F 57% 29.98 in 10.0 mi NNE 17.3 mph 23.0 mph N/A   Overcast
10:55 PM 39.2 °F 32.5 °F 30.2 °F 70% 30.08 in 10.0 mi NNE 10.4 mph - N/A   Mostly Cloudy
11:15 PM 39.2 °F 34.2 °F 30.2 °F 70% 30.10 in 10.0 mi North 6.9 mph - N/A   Scattered Clouds
11:35 PM 39.2 °F 34.2 °F 30.2 °F 70% 30.10 in 10.0 mi North 6.9 mph - N/A   Mostly Cloudy